Tiempo atmosférico en la estación meteorológica de Coruña Del Conde, Burgos (945 m.)



Fecha
DESCASC
Temp. máxima en grados centígrados (hora)
DESCASC
Temp. mínima en grados centígrados (hora)
DESCASC
Temp. media en grados centígrados
DESCASC
Racha de viento máxima en m/sg (hora)
DESCASC
Velocidad máxima media en intervalos de 10 minutos(hora)
DESCASC
Precipitaciones diarias en mm
DESCASC
Precipitaciones de 00:00 a 06:00 en mm
DESCASC
Precipitaciones de 06:00 a 12:00 en mm
DESCASC
Precipitaciones de 12:00 a 18:00 en mm
DESCASC
Precipitaciones de 18:00 a 24:00 en mm
DESCASC
16-04-2019 18.4 (18:00) 4.7 (07:30) 11.5 9.44 (16:50) 5.83 (20:00) 0 0 0 0 0
15-04-2019 21.3 (16:20) 9.1 (01:20) 15.2 15.56 (18:40) 11.11 (18:50) 0 0 0 0 0
14-04-2019 18.4 (17:10) 6.6 (00:00) 12.5 7.22 (15:20) 4.17 (15:20) 0 0 0 0 0
13-04-2019 17.9 (17:30) -2.8 (-00:0) 7.5 8.61 (16:50) 4.44 (18:40) 0 0 0 0 0
12-04-2019 15.1 (17:20) -1.2 (-00:0) 7 11.11 (17:10) 6.67 (19:00) 0 0 0 0 0
11-04-2019 11.1 (18:30) 0.2 (00:00) 5.7 10.56 (15:00) 6.94 (12:20) 0 0 0 0 0
10-04-2019 10.6 (17:40) 2.8 (00:00) 6.7 9.17 (14:10) 6.39 (20:00) 0 0 0 0 0
09-04-2019 9.1 (19:20) 3 (00:00) 6.1 11.67 (19:00) 7.22 (16:10) 4.8 0 0.6 4 0.2
08-04-2019 12.8 (16:30) 4.1 (00:00) 8.5 10.56 (13:10) 6.67 (14:40) 4.8 3 1.8 0 0
07-04-2019 9.8 (17:40) 1.4 (00:00) 5.6 10.28 (19:50) 5.83 (20:00) 1.4 0 0.2 0 1.2
06-04-2019 6.4 (16:30) 0.1 (00:00) 3.3 16.11 (14:50) 8.33 (13:40) 5.8 1 0.8 1.6 2.4
05-04-2019 5.5 (14:00) -0.5 (-00:0) 2.5 9.72 (14:50) 5.83 (19:10) 5.2 0.2 2 3 0
04-04-2019 10.7 (18:00) -5.3 (-00:0) 2.7 13.89 (17:30) 6.11 (17:10) 0 0 0 0 0
03-04-2019 9.9 (15:10) -1.3 (-00:0) 4.3 17.78 (17:10) 11.11 (17:10) 0.2 0 0 0.2 0
02-04-2019 15.2 (14:10) 2.5 (00:00) 8.8 9.44 (15:50) 5.83 (15:50) 1.2 0 0 0 1.2
01-04-2019 15.3 (17:20) 4.8 (00:00) 10.1 8.61 (00:10) 5 (00:10) 0.2 0 0.2 0 0
31-03-2019 15.6 (14:30) 4.8 (00:00) 10.2 11.94 (17:30) 7.5 (19:10) 0.4 0 0 0 0.4
30-03-2019 16.7 (16:00) 3.2 (00:00) 10 9.44 (11:50) 5 (00:40) 0 0 0 0 0
29-03-2019 16.8 (16:50) 4.1 (00:00) 10.4 10 (15:10) 5.56 (15:00) 0 0 0 0 0
28-03-2019 18.2 (16:30) -1.6 (-00:0) 8.3 7.78 (16:50) 4.17 (21:00) 0 0 0 0 0
27-03-2019 19.3 (16:30) -1.4 (-00:0) 8.9 10.83 (18:40) 7.22 (18:40) 0 0 0 0 0
26-03-2019 17.7 (16:10) -2.4 (-00:0) 7.7 10 (13:30) 6.11 (18:30) 0 0 0 0 0
25-03-2019 17.1 (15:20) 1.3 (00:00) 9.2 11.39 (17:10) 7.5 (17:20) 0 0 0 0 0
24-03-2019 19.9 (17:10) 3.6 (00:00) 11.7 9.17 (14:30) 5.28 (13:30) 0 0 0 0 0
23-03-2019 18.7 (15:50) 2.8 (00:00) 10.8 13.61 (15:00) 5 (18:10) 0 0 0 0 0
22-03-2019 16.7 (15:50) 1.3 (00:00) 9 9.72 (16:50) 4.44 (16:20) 0 0 0 0 0
21-03-2019 13.9 (16:30) -3.6 (-00:0) 5.1 8.61 (13:20) 4.44 (22:10) 0 0 0 0 0
20-03-2019 13.4 (17:00) 0 (00:00) 6.7 10.83 (19:00) 6.67 (18:40) 0 0 0 0 0
19-03-2019 10.9 (15:40) 2.4 (00:00) 6.6 12.22 (15:10) 7.78 (15:10) 0 0 0 0 0

Gráficas

Temp. máximas Temp. mínimas Temp. medias Precipitaciones Rachas de viento máximas Velocidades máximas media en intervalos de 10 minutos

Datos horarios

Fecha y hora oficial Temperatura (ºC) Velocidad del viento (km/h) Dirección del viento Racha (km/h) Dirección de racha Precipitación (mm) Presión (hPa) Tendencia (hPa) Humedad (%)
2019-04-17 23:00:00 11.8 3 Noroeste 10 Noroeste 0 -- -- 84
2019-04-17 22:00:00 12.1 8 Noroeste 28 Noroeste 0 -- -- 80
2019-04-17 21:00:00 14.7 17 Oeste 38 Oeste 0 -- -- 58
2019-04-17 20:00:00 17.4 17 Este 27 Este 0 -- -- 50
2019-04-17 19:00:00 18.7 10 Sudeste 33 Sudeste 0 -- -- 38
2019-04-17 18:00:00 19.5 19 Sudeste 32 Sudeste 0 -- -- 36
2019-04-17 17:00:00 19 20 Este 33 Este 0 -- -- 42
2019-04-17 16:00:00 17.5 14 Sudeste 33 Sudeste 0 -- -- 46
2019-04-17 15:00:00 16.7 22 Sudeste 39 Sudeste 0 -- -- 47
2019-04-17 14:00:00 15.1 23 Sudeste 41 Este 0 -- -- 53
2019-04-17 13:00:00 13.8 22 Sudeste 42 Este 0 -- -- 61
2019-04-17 12:00:00 12.1 21 Sudeste 47 Este 0 -- -- 68
2019-04-17 11:00:00 10.5 23 Sudeste 44 Sudeste 0 -- -- 74
2019-04-17 10:00:00 9.7 27 Sudeste 41 Sudeste 0 -- -- 76
2019-04-17 09:00:00 8.9 22 Este 39 Este 0 -- -- 79
2019-04-17 08:00:00 8.9 24 Este 42 Este 0 -- -- 78
2019-04-17 07:00:00 8.9 23 Este 39 Este 0 -- -- 77
2019-04-17 06:00:00 9.3 23 Sudeste 41 Sudeste 0 -- -- 75
2019-04-17 05:00:00 9.6 25 Sudeste 45 Este 0 -- -- 73
2019-04-17 04:00:00 9.8 25 Sudeste 45 Este 0 -- -- 70
2019-04-17 03:00:00 10.2 25 Este 40 Este 0 -- -- 65
2019-04-17 02:00:00 10.2 23 Sudeste 35 Este 0 -- -- 65
2019-04-17 01:00:00 10.9 19 Este 35 Este 0 -- -- 62
2019-04-17 00:00:00 11.7 17 Sudeste 28 Sudeste 0 -- -- 57
2019-04-16 23:00:00 12.4 15 Sudeste 21 Sudeste 0 -- -- 50
2019-04-16 22:00:00 13.1 14 Sudeste 22 Sudeste 0 -- -- 48
2019-04-16 21:00:00 14.6 9 Sudeste 29 Sudeste 0 -- -- 44
2019-04-16 20:00:00 17.4 21 Sudeste 30 Sudeste 0 -- -- 36
2019-04-16 19:00:00 18.2 20 Sudeste 31 Sudeste 0 -- -- 35
2019-04-16 18:00:00 18.4 16 Sudeste 33 Sudeste 0 -- -- 35
2019-04-16 17:00:00 17.9 18 Sudeste 34 Este 0 -- -- 38
2019-04-16 16:00:00 17.4 15 Sudeste 30 Sudeste 0 -- -- 40
2019-04-16 15:00:00 16.1 14 Sudeste 27 Sudeste 0 -- -- 41
2019-04-16 14:00:00 14.5 12 Sur 27 Sudeste 0 -- -- 46
2019-04-16 13:00:00 13.3 6 Sur 14 Sudeste 0 -- -- 57
2019-04-16 12:00:00 11.6 9 Sur 17 Sur 0 -- -- 64
2019-04-16 11:00:00 8.5 3 Sur 12 Sur 0 -- -- 83
2019-04-16 10:00:00 6.3 2 Este 9 Oeste 0 -- -- 93
2019-04-16 09:00:00 5.8 6 Oeste 11 Noroeste 0 -- -- 94
2019-04-16 08:00:00 5 2 Norte 5 Norte 0 -- -- 93
2019-04-16 07:00:00 5.2 0 Calma 5 Sudeste 0 -- -- 92
2019-04-16 06:00:00 4.9 0 Calma 3 Sudeste 0 -- -- 92
2019-04-16 05:00:00 4.9 2 Norte 5 Este 0 -- -- 91
2019-04-16 04:00:00 5.7 2 Norte 7 Oeste 0 -- -- 87
2019-04-16 03:00:00 6.7 4 Sudoeste 9 Oeste 0 -- -- 84
2019-04-16 02:00:00 7.3 3 Noroeste 17 Oeste 0 -- -- 80
2019-04-16 01:00:00 8.3 11 Oeste 21 Oeste 0 -- -- 74
2019-04-16 00:00:00 9.4 10 Oeste 21 Oeste 0 -- -- 66
2019-04-15 23:00:00 10.6 13 Oeste 27 Oeste 0 -- -- 62
2019-04-15 22:00:00 11.3 15 Oeste 30 Oeste 0 -- -- 59
2019-04-15 21:00:00 12.3 21 Oeste 42 Oeste 0 -- -- 55
2019-04-15 20:00:00 13.4 27 Noroeste 45 Oeste 0 -- -- 58
2019-04-15 19:00:00 15.5 35 Oeste 56 Noroeste 0 -- -- 57
2019-04-15 18:00:00 18.7 27 Oeste 49 Oeste 0 -- -- 51
2019-04-15 17:00:00 18.2 9 Noroeste 48 Sudoeste 0 -- -- 54
2019-04-15 16:00:00 20.5 30 Sur 53 Sur 0 -- -- 45
2019-04-15 15:00:00 20.8 31 Sur 48 Sur 0 -- -- 46
2019-04-15 14:00:00 20.2 20 Sur 32 Sudoeste 0 -- -- 45
2019-04-15 13:00:00 18.1 13 Sur 22 Sudeste 0 -- -- 55
2019-04-15 12:00:00 17.4 10 Sur 21 Sudeste 0 -- -- 60
2019-04-15 11:00:00 16 10 Sudeste 24 Sudeste 0 -- -- 63
2019-04-15 10:00:00 14.5 14 Sudeste 23 Este 0 -- -- 67
2019-04-15 09:00:00 11.4 13 Este 22 Este 0 -- -- 77
2019-04-15 08:00:00 10.5 12 Este 24 Sudeste 0 -- -- 79
2019-04-15 07:00:00 10.7 11 Sudeste 24 Este 0 -- -- 79
2019-04-15 06:00:00 10.5 9 Este 21 Este 0 -- -- 79
2019-04-15 05:00:00 10.9 13 Sudeste 23 Este 0 -- -- 77
2019-04-15 04:00:00 10.6 13 Este 23 Este 0 -- -- 78
2019-04-15 03:00:00 10.1 10 Este 15 Este 0 -- -- 80
2019-04-15 02:00:00 9.8 5 Sudeste 8 Sudeste 0 -- -- 81
2019-04-15 01:00:00 9.2 2 Norte 5 Norte 0 -- -- 82
2019-04-15 00:00:00 10.5 4 Norte 8 Este 0 -- -- 77
2019-04-14 23:00:00 12.7 3 Este 5 Este 0 -- -- 68
2019-04-14 22:00:00 14.1 0 Calma 8 Oeste 0 -- -- 64
2019-04-14 21:00:00 15.5 6 Oeste 10 Oeste 0 -- -- 58
2019-04-14 20:00:00 17.4 7 Oeste 14 Oeste 0 -- -- 52
2019-04-14 19:00:00 18.2 5 Sudoeste 16 Noroeste 0 -- -- 50
2019-04-14 18:00:00 18.3 9 Oeste 22 Oeste 0 -- -- 49
2019-04-14 17:00:00 18.2 12 Oeste 22 Oeste 0 -- -- 52
2019-04-14 16:00:00 16.8 12 Sudoeste 26 Sudoeste 0 -- -- 56
2019-04-14 15:00:00 16.3 13 Sudoeste 24 Sudoeste 0 -- -- 60
2019-04-14 14:00:00 15 13 Sudoeste 24 Sudoeste 0 -- -- 67
2019-04-14 13:00:00 14.4 10 Oeste 24 Oeste 0 -- -- 68
2019-04-14 12:00:00 13.7 12 Noroeste 20 Noroeste 0 -- -- 71
2019-04-14 11:00:00 11.9 9 Oeste 16 Noroeste 0 -- -- 77
2019-04-14 10:00:00 10.4 7 Oeste 13 Oeste 0 -- -- 79
2019-04-14 09:00:00 8.9 3 Norte 6 Norte 0 -- -- 77
2019-04-14 08:00:00 8.3 3 Oeste 6 Oeste 0 -- -- 76
2019-04-14 07:00:00 7.4 4 Norte 6 Norte 0 -- -- 73
2019-04-14 06:00:00 6.9 3 Norte 7 Noroeste 0 -- -- 70
2019-04-14 05:00:00 8 6 Oeste 10 Oeste 0 -- -- 63
2019-04-14 04:00:00 7.8 4 Sudoeste 8 Oeste 0 -- -- 56
2019-04-14 03:00:00 6.9 0 Calma 4 Nordeste 0 -- -- 60
2019-04-14 02:00:00 6.8 4 Noroeste 5 Norte 0 -- -- 63
2019-04-14 01:00:00 9.2 0 Calma 2 Noroeste 0 -- -- 50
2019-04-14 00:00:00 9.9 0 Calma 6 Nordeste 0 -- -- 48
2019-04-13 23:00:00 11.3 3 Norte 5 Oeste 0 -- -- 44
2019-04-13 22:00:00 12.5 5 Oeste 10 Oeste 0 -- -- 38
2019-04-13 21:00:00 13.8 8 Oeste 17 Oeste 0 -- -- 35
2019-04-13 20:00:00 16.6 10 Noroeste 24 Oeste 0 -- -- 26
2019-04-13 19:00:00 17.4 13 Noroeste 27 Noroeste 0 -- -- 27
2019-04-13 18:00:00 17.8 12 Oeste 24 Oeste 0 -- -- 22
2019-04-13 17:00:00 17.6 9 Oeste 31 Oeste 0 -- -- 22
2019-04-13 16:00:00 17.1 12 Oeste 24 Noroeste 0 -- -- 23
2019-04-13 15:00:00 16.5 12 Oeste 23 Oeste 0 -- -- 19
2019-04-13 14:00:00 15.4 11 Oeste 24 Oeste 0 -- -- 28
2019-04-13 13:00:00 13.6 11 Oeste 20 Sudoeste 0 -- -- 39
2019-04-13 12:00:00 10.1 8 Oeste 14 Oeste 0 -- -- 49
2019-04-13 11:00:00 6.7 6 Sudoeste 10 Sudoeste 0 -- -- 60
2019-04-13 10:00:00 3.8 3 Sudoeste 6 Sudoeste 0 -- -- 77
2019-04-13 09:00:00 0.4 0 Calma 3 Sudoeste 0 -- -- 86
2019-04-13 08:00:00 -2.2 0 Calma 6 Nordeste 0 -- -- 83
2019-04-13 07:00:00 -2.6 0 Calma 4 Nordeste 0 -- -- 85
2019-04-13 06:00:00 -1.9 0 Calma 5 Sudeste 0 -- -- 85
2019-04-13 05:00:00 -1.2 3 Este 6 Este 0 -- -- 82
2019-04-13 04:00:00 -0.3 3 Sur 5 Sur 0 -- -- 79
2019-04-13 03:00:00 1 2 Sur 5 Sudeste 0 -- -- 74
2019-04-13 02:00:00 2.6 3 Sudoeste 8 Oeste 0 -- -- 67
2019-04-13 01:00:00 3.3 0 Calma 5 Sudoeste 0 -- -- 64
2019-04-13 00:00:00 4 2 Sur 9 Norte 0 -- -- 63
2019-04-12 23:00:00 6.4 9 Norte 13 Norte 0 -- -- 55
2019-04-12 22:00:00 7.2 6 Norte 17 Noroeste 0 -- -- 50
2019-04-12 21:00:00 9.9 11 Noroeste 28 Noroeste 0 -- -- 42
2019-04-12 20:00:00 13.1 20 Noroeste 39 Noroeste 0 -- -- 33
2019-04-12 19:00:00 14.2 24 Noroeste 36 Noroeste 0 -- -- 33
2019-04-12 18:00:00 14.9 20 Noroeste 40 Oeste 0 -- -- 39
2019-04-12 17:00:00 14.8 22 Oeste 35 Oeste 0 -- -- 40
2019-04-12 16:00:00 14 18 Oeste 33 Oeste 0 -- -- 43
2019-04-12 15:00:00 13.1 18 Oeste 33 Sudoeste 0 -- -- 45
2019-04-12 14:00:00 11.6 15 Oeste 28 Sudoeste 0 -- -- 49
2019-04-12 13:00:00 10.2 10 Oeste 21 Oeste 0 -- -- 54
2019-04-12 12:00:00 8.7 8 Oeste 16 Sudoeste 0 -- -- 62
2019-04-12 11:00:00 5.9 7 Sudoeste 12 Sudoeste 0 -- -- 76
2019-04-12 10:00:00 2.6 5 Sudoeste 9 Sudoeste 0 -- -- 90
2019-04-12 09:00:00 0.3 4 Sur 6 Sudoeste 0 -- -- 92
2019-04-12 08:00:00 -1.2 4 Sudoeste 8 Sudoeste 0 -- -- 93
2019-04-12 07:00:00 -0.7 2 Sudoeste 6 Sudoeste 0 -- -- 93
2019-04-12 06:00:00 -0.2 0 Calma 4 Oeste 0 -- -- 92
2019-04-12 05:00:00 0.4 3 Oeste 6 Noroeste 0 -- -- 90
2019-04-12 04:00:00 1.3 0 Calma 6 Sudoeste 0 -- -- 88
2019-04-12 03:00:00 2.2 0 Calma 8 Sudoeste 0 -- -- 85
2019-04-12 02:00:00 3.2 3 Norte 10 Nordeste 0 -- -- 81
2019-04-12 01:00:00 2.7 4 Noroeste 9 Norte 0 -- -- 84
2019-04-12 00:00:00 3.3 5 Noroeste 14 Norte 0 -- -- 81
2019-04-11 23:00:00 4.6 9 Nordeste 15 Nordeste 0 -- -- 77
2019-04-11 22:00:00 5.2 8 Norte 13 Norte 0 -- -- 74
2019-04-11 21:00:00 6.9 9 Norte 27 Norte 0 -- -- 67
2019-04-11 20:00:00 8.9 16 Norte 28 Norte 0 -- -- 58
2019-04-11 19:00:00 9.9 19 Norte 32 Noroeste 0 -- -- 53
2019-04-11 18:00:00 10.3 17 Noroeste 30 Noroeste 0 -- -- 55
2019-04-11 17:00:00 9.7 20 Norte 30 Norte 0 -- -- 57
2019-04-11 16:00:00 9.2 20 Noroeste 33 Noroeste 0 -- -- 58
2019-04-11 15:00:00 9.7 22 Noroeste 38 Noroeste 0 -- -- 53
2019-04-11 14:00:00 8.4 21 Norte 33 Noroeste 0 -- -- 60
2019-04-11 13:00:00 8.4 22 Norte 38 Norte 0 -- -- 58
2019-04-11 12:00:00 8.2 20 Norte 32 Noroeste 0 -- -- 60
2019-04-11 11:00:00 7.3 21 Norte 33 Noroeste 0 -- -- 64
2019-04-11 10:00:00 5.7 7 Noroeste 18 Norte 0 -- -- 76
2019-04-11 09:00:00 3.3 4 Oeste 12 Sudoeste 0 -- -- 82
2019-04-11 08:00:00 1.3 8 Noroeste 13 Noroeste 0 -- -- 88
2019-04-11 07:00:00 0.2 4 Noroeste 10 Noroeste 0 -- -- 90
2019-04-11 06:00:00 1.1 4 Oeste 10 Oeste 0 -- -- 89
2019-04-11 05:00:00 1 4 Noroeste 15 Oeste 0 -- -- 90
2019-04-11 04:00:00 1.8 9 Oeste 13 Oeste 0 -- -- 88
2019-04-11 03:00:00 1.8 5 Noroeste 11 Noroeste 0 -- -- 85
2019-04-11 02:00:00 2.6 6 Oeste 12 Noroeste 0 -- -- 84
2019-04-11 01:00:00 2.7 6 Noroeste 8 Noroeste 0 -- -- 84
2019-04-11 00:00:00 2.8 3 Norte 10 Noroeste 0 -- -- 84
2019-04-10 23:00:00 3.8 10 Norte 21 Norte 0 -- -- 81
2019-04-10 22:00:00 5.5 14 Norte 23 Norte 0 -- -- 71
2019-04-10 21:00:00 6.4 18 Norte 28 Nordeste 0 -- -- 68
2019-04-10 20:00:00 9.2 23 Nordeste 33 Norte 0 -- -- 58
2019-04-10 19:00:00 10.6 15 Norte 29 Norte 0 -- -- 53
2019-04-10 18:00:00 9.9 9 Norte 24 Noroeste 0 -- -- 53
2019-04-10 17:00:00 10.1 14 Noroeste 27 Noroeste 0 -- -- 50
2019-04-10 16:00:00 9.1 16 Noroeste 32 Noroeste 0 -- -- 56
2019-04-10 15:00:00 8.6 18 Noroeste 33 Oeste 0 -- -- 66
2019-04-10 14:00:00 8.6 16 Noroeste 27 Oeste 0 -- -- 66
2019-04-10 13:00:00 7.9 15 Oeste 27 Noroeste 0 -- -- 68
2019-04-10 12:00:00 6.5 13 Noroeste 24 Noroeste 0 -- -- 78
2019-04-10 11:00:00 4.9 15 Noroeste 25 Noroeste 0 -- -- 86
2019-04-10 10:00:00 3.8 17 Oeste 24 Oeste 0 -- -- 89
2019-04-10 09:00:00 3.4 10 Noroeste 22 Oeste 0 -- -- 92
2019-04-10 08:00:00 3.3 10 Oeste 23 Oeste 0 -- -- 91
2019-04-10 07:00:00 3.5 13 Oeste 24 Oeste 0 -- -- 90
2019-04-10 06:00:00 3.8 11 Oeste 24 Oeste 0 -- -- 90
2019-04-10 05:00:00 4.2 10 Oeste 27 Oeste 0 -- -- 90
2019-04-10 04:00:00 4.6 12 Oeste 25 Oeste 0 -- -- 89
2019-04-10 03:00:00 4.8 12 Oeste 26 Oeste 0 -- -- 89
2019-04-10 02:00:00 5 12 Oeste 27 Oeste 0 -- -- 88
2019-04-10 01:00:00 4.9 9 Oeste 17 Oeste 0 -- -- 86
2019-04-10 00:00:00 5.3 6 Oeste 12 Oeste 0 -- -- 85
2019-04-09 23:00:00 4.9 3 Noroeste 17 Oeste 0 -- -- 86
2019-04-09 22:00:00 5.7 12 Oeste 20 Oeste 0 -- -- 81
2019-04-09 21:00:00 5.5 10 Oeste 30 Oeste 0.2 -- -- 78
2019-04-09 20:00:00 8.1 17 Oeste 38 Oeste 0 -- -- 67
2019-04-09 19:00:00 8.8 21 Oeste 42 Oeste 0 -- -- 67
2019-04-09 18:00:00 7.4 18 Oeste 31 Noroeste 0 -- -- 77
2019-04-09 17:00:00 5.6 14 Oeste 42 Oeste 1 -- -- 90
2019-04-09 16:00:00 6.1 19 Oeste 36 Sudoeste 0.8 -- -- 90
2019-04-09 15:00:00 5.2 12 Sudoeste 40 Sudoeste 1.2 -- -- 92
2019-04-09 14:00:00 6.9 14 Sudoeste 27 Sudoeste 0.4 -- -- 88
2019-04-09 13:00:00 5.3 20 Oeste 40 Oeste 0.6 -- -- 88
2019-04-09 12:00:00 6.4 20 Sudoeste 33 Sudoeste 0 -- -- 81
2019-04-09 11:00:00 4.6 12 Sudoeste 36 Sudoeste 0.6 -- -- 91
2019-04-09 10:00:00 4.4 6 Sudoeste 15 Sudoeste 0 -- -- 88
2019-04-09 09:00:00 4.2 3 Sudoeste 5 Sudoeste 0 -- -- 89
2019-04-09 08:00:00 3.8 0 Calma 6 Oeste 0 -- -- 89
2019-04-09 07:00:00 3.6 0 Calma 11 Sudoeste 0 -- -- 90
2019-04-09 06:00:00 3.2 5 Sudoeste 13 Oeste 0 -- -- 92
2019-04-09 05:00:00 3.7 5 Sudoeste 17 Sudoeste 0 -- -- 90
2019-04-09 04:00:00 3.6 5 Sudoeste 14 Sudoeste 0 -- -- 90
2019-04-09 03:00:00 3.7 4 Oeste 14 Oeste 0 -- -- 87
2019-04-09 02:00:00 4.1 9 Oeste 15 Oeste 0 -- -- 85
2019-04-09 01:00:00 5.2 4 Sudoeste 17 Oeste 0 -- -- 77
2019-04-09 00:00:00 6.5 12 Oeste 24 Oeste 0 -- -- 73
2019-04-08 23:00:00 6.9 7 Oeste 12 Oeste 0 -- -- 71
2019-04-08 22:00:00 7.7 7 Oeste 15 Oeste 0 -- -- 67
2019-04-08 21:00:00 8.2 10 Oeste 21 Sudoeste 0 -- -- 66
2019-04-08 20:00:00 10.5 8 Oeste 23 Oeste 0 -- -- 54
2019-04-08 19:00:00 11.7 13 Oeste 25 Sudoeste 0 -- -- 49
2019-04-08 18:00:00 11.1 17 Oeste 30 Oeste 0 -- -- 53
2019-04-08 17:00:00 11.8 19 Oeste 32 Oeste 0 -- -- 50
2019-04-08 16:00:00 12.3 18 Oeste 36 Oeste 0 -- -- 50
2019-04-08 15:00:00 10.8 20 Oeste 37 Oeste 0 -- -- 61
2019-04-08 14:00:00 10 17 Oeste 38 Oeste 0 -- -- 63
2019-04-08 13:00:00 10.1 19 Oeste 29 Oeste 0 -- -- 66
2019-04-08 12:00:00 9.7 19 Oeste 31 Oeste 0 -- -- 76
2019-04-08 11:00:00 8.1 14 Oeste 27 Sudoeste 0 -- -- 89
2019-04-08 10:00:00 7 12 Oeste 25 Oeste 0 -- -- 95
2019-04-08 09:00:00 6.8 13 Sudoeste 24 Sudoeste 0.2 -- -- 96
2019-04-08 08:00:00 6.3 6 Sur 12 Sudoeste 0.8 -- -- 95
2019-04-08 07:00:00 5.9 0 Calma 5 Sudeste 0.8 -- -- 95
2019-04-08 06:00:00 5.5 0 Calma 5 Sudeste 0.4 -- -- 95
2019-04-08 05:00:00 5.2 3 Sudeste 5 Sudeste 0 -- -- 95
2019-04-08 04:00:00 4.8 2 Este 7 Este 0.2 -- -- 95
2019-04-08 03:00:00 4.4 3 Este 12 Este 0.2 -- -- 95
2019-04-08 02:00:00 4.2 6 Este 17 Sudeste 1 -- -- 94
2019-04-08 01:00:00 4.1 9 Este 18 Sudeste 1.2 -- -- 93
2019-04-08 00:00:00 4.3 6 Este 11 Este 0.4 -- -- 92
2019-04-07 23:00:00 4.6 4 Sur 8 Sudoeste 0.6 -- -- 91
2019-04-07 22:00:00 4.6 5 Sudoeste 19 Oeste 0.2 -- -- 90
2019-04-07 21:00:00 5.2 12 Sudoeste 32 Sudoeste 0 -- -- 84
2019-04-07 20:00:00 7.1 21 Sudoeste 37 Sudoeste 0 -- -- 64
2019-04-07 19:00:00 9.1 12 Sudoeste 26 Oeste 0 -- -- 50
2019-04-07 18:00:00 9.6 15 Sudoeste 29 Sudoeste 0 -- -- 46
2019-04-07 17:00:00 9.5 12 Oeste 27 Oeste 0 -- -- 42
2019-04-07 16:00:00 9 10 Sudoeste 24 Sudoeste 0 -- -- 50
2019-04-07 15:00:00 7.9 9 Sudoeste 22 Oeste 0 -- -- 59
2019-04-07 14:00:00 5.8 13 Sudoeste 23 Sudoeste 0 -- -- 69
2019-04-07 13:00:00 4.5 9 Oeste 22 Oeste 0 -- -- 74
2019-04-07 12:00:00 4.4 10 Oeste 31 Oeste 0.2 -- -- 75
2019-04-07 11:00:00 3.3 15 Oeste 28 Oeste 0 -- -- 81
2019-04-07 10:00:00 2.1 15 Oeste 26 Oeste 0 -- -- 86
2019-04-07 09:00:00 1.5 12 Oeste 22 Oeste 0 -- -- 90
2019-04-07 08:00:00 1.5 14 Oeste 26 Oeste 0 -- -- 89
2019-04-07 07:00:00 1.5 12 Oeste 27 Oeste 0 -- -- 90
2019-04-07 06:00:00 1.7 13 Oeste 30 Oeste 0 -- -- 89
2019-04-07 05:00:00 2.1 14 Oeste 32 Oeste 0 -- -- 91
2019-04-07 04:00:00 2.1 14 Oeste 35 Oeste 0 -- -- 90
2019-04-07 03:00:00 2.1 14 Oeste 27 Oeste 0 -- -- 89
2019-04-07 02:00:00 2.1 13 Oeste 26 Oeste 0 -- -- 88
2019-04-07 01:00:00 2.4 13 Oeste 26 Oeste 0 -- -- 86
2019-04-07 00:00:00 3 13 Oeste 27 Oeste 0 -- -- 86
2019-04-06 23:00:00 3.2 16 Oeste 42 Oeste 0.2 -- -- 88
2019-04-06 22:00:00 2.4 16 Oeste 41 Noroeste 0.6 -- -- 93
2019-04-06 21:00:00 1 4 Noroeste 51 Noroeste 1.2 -- -- 93
2019-04-06 20:00:00 4.9 24 Oeste 41 Sudoeste 0 -- -- 75
2019-04-06 19:00:00 5.4 26 Oeste 49 Oeste 0.4 -- -- 74
2019-04-06 18:00:00 5.7 27 Sudoeste 53 Oeste 0.8 -- -- 77
2019-04-06 17:00:00 4 15 Oeste 46 Oeste 0.4 -- -- 83
2019-04-06 16:00:00 5.2 21 Oeste 57 Oeste 0.4 -- -- 81
2019-04-06 15:00:00 6 26 Sudoeste 58 Sudoeste 0 -- -- 75
2019-04-06 14:00:00 5.5 22 Oeste 51 Sudoeste 0 -- -- 78
2019-04-06 13:00:00 5.4 22 Sudoeste 37 Sudoeste 0 -- -- 72
2019-04-06 12:00:00 3.9 20 Sudoeste 36 Sudoeste 0 -- -- 84
2019-04-06 11:00:00 3.4 22 Sudoeste 39 Sudoeste 0.2 -- -- 86
2019-04-06 10:00:00 1.7 15 Sudoeste 24 Sudoeste 0.2 -- -- 94
2019-04-06 09:00:00 1.7 12 Sudoeste 22 Sudoeste 0.2 -- -- 92
2019-04-06 08:00:00 1.5 9 Sudoeste 26 Oeste 0 -- -- 93
2019-04-06 07:00:00 1.5 12 Sudoeste 24 Oeste 0.2 -- -- 94
2019-04-06 06:00:00 1.6 16 Oeste 27 Sudoeste 0.4 -- -- 94
2019-04-06 05:00:00 0.9 7 Oeste 20 Oeste 0.4 -- -- 95
2019-04-06 04:00:00 1.7 11 Oeste 30 Oeste 0 -- -- 94
2019-04-06 03:00:00 1.7 19 Oeste 34 Oeste 0 -- -- 95
2019-04-06 02:00:00 1.5 9 Oeste 16 Oeste 0.2 -- -- 96
2019-04-06 01:00:00 0.7 5 Oeste 10 Sudoeste 0 -- -- 96
2019-04-06 00:00:00 0.1 0 Calma -- -- 0 -- -- 96
2019-04-05 23:00:00 -0.4 0 Calma 6 Nordeste 0 -- -- 95
2019-04-05 22:00:00 0.2 2 Noroeste 14 Sudoeste 0 -- -- 94
2019-04-05 21:00:00 1.2 6 Sudoeste 9 Sudoeste 0 -- -- 91
2019-04-05 20:00:00 1.5 8 Oeste 35 Oeste 0 -- -- 91
2019-04-05 19:00:00 3.4 12 Oeste 20 Oeste 0 -- -- 85
2019-04-05 18:00:00 2.9 5 Sudoeste 10 Sur 0 -- -- 90
2019-04-05 17:00:00 2.5 0 Calma 9 Oeste 0.6 -- -- 94
2019-04-05 16:00:00 1.4 6 Oeste 24 Oeste 1.4 -- -- 93
2019-04-05 15:00:00 1.9 15 Oeste 35 Oeste 0.4 -- -- 89
2019-04-05 14:00:00 5.5 12 Noroeste 18 Noroeste 0 -- -- 85
2019-04-05 13:00:00 4.2 8 Noroeste 15 Oeste 0.6 -- -- 90
2019-04-05 12:00:00 3 8 Oeste 26 Sur 1 -- -- 93
2019-04-05 11:00:00 4.2 6 Sudeste 14 Sudeste 0 -- -- 90
2019-04-05 10:00:00 3.6 7 Sudeste 14 Este 0 -- -- 92
2019-04-05 09:00:00 2.6 10 Este 17 Este 0.2 -- -- 93
2019-04-05 08:00:00 2.4 6 Este 17 Sudeste 0.2 -- -- 92
2019-04-05 07:00:00 2.7 9 Sudeste 15 Sudeste 0.6 -- -- 90
2019-04-05 06:00:00 3 3 Este 11 Sudeste 0.2 -- -- 87
2019-04-05 05:00:00 3.4 6 Sur 10 Sur 0 -- -- 81
2019-04-05 04:00:00 3.4 0 Calma 4 Nordeste 0 -- -- 79
2019-04-05 03:00:00 3.4 4 Noroeste 6 Noroeste 0 -- -- 79
2019-04-05 02:00:00 3.7 3 Noroeste 10 Noroeste 0 -- -- 71
2019-04-05 01:00:00 3.9 5 Noroeste 13 Noroeste 0 -- -- 67
2019-04-05 00:00:00 4.1 9 Noroeste 17 Oeste 0 -- -- 65
2019-04-04 23:00:00 4.8 15 Noroeste 26 Noroeste 0 -- -- 60
2019-04-04 22:00:00 6.6 8 Noroeste 31 Oeste 0 -- -- 47
2019-04-04 21:00:00 7.4 8 Oeste 22 Oeste 0 -- -- 37
2019-04-04 20:00:00 8.3 13 Oeste 27 Oeste 0 -- -- 33
2019-04-04 19:00:00 9.4 18 Oeste 34 Sudoeste 0 -- -- 29
2019-04-04 18:00:00 10.7 19 Sudoeste 50 Oeste 0 -- -- 28
2019-04-04 17:00:00 10.3 17 Oeste 35 Oeste 0 -- -- 29
2019-04-04 16:00:00 9.2 18 Sudoeste 34 Oeste 0 -- -- 32
2019-04-04 15:00:00 8.3 14 Sudoeste 31 Sudoeste 0 -- -- 38
2019-04-04 14:00:00 6.4 13 Oeste 28 Oeste 0 -- -- 43
2019-04-04 13:00:00 5.7 12 Sudoeste 28 Sudoeste 0 -- -- 50
2019-04-04 12:00:00 3.9 9 Oeste 25 Oeste 0 -- -- 60
2019-04-04 11:00:00 1.7 10 Oeste 20 Oeste 0 -- -- 68
2019-04-04 10:00:00 -0.7 6 Sudoeste 12 Sudoeste 0 -- -- 80
2019-04-04 09:00:00 -3.1 0 Calma 6 Oeste 0 -- -- 85
2019-04-04 08:00:00 -5.3 4 Sur 7 Oeste 0 -- -- 87
2019-04-04 07:00:00 -4.3 2 Noroeste 10 Oeste 0 -- -- 84
2019-04-04 06:00:00 -3.2 6 Oeste 16 Oeste 0 -- -- 79
2019-04-04 05:00:00 -3.4 10 Oeste 14 Sudoeste 0 -- -- 82
2019-04-04 04:00:00 -2.2 9 Oeste 14 Oeste 0 -- -- 78
2019-04-04 03:00:00 -2.7 5 Oeste 12 Oeste 0 -- -- 84
2019-04-04 02:00:00 -2.1 8 Sudoeste 12 Sudoeste 0 -- -- 81
2019-04-04 01:00:00 -2.1 4 Sudoeste 6 Oeste 0 -- -- 80
2019-04-04 00:00:00 -1.3 3 Noroeste 8 Noroeste 0 -- -- 77
2019-04-03 23:00:00 -0.3 7 Norte 12 Noroeste 0 -- -- 76
2019-04-03 22:00:00 1.1 6 Norte 16 Norte 0 -- -- 71
2019-04-03 21:00:00 3.3 14 Norte 36 Noroeste 0 -- -- 63
2019-04-03 20:00:00 5.6 8 Noroeste 18 Oeste 0 -- -- 57
2019-04-03 19:00:00 4.7 12 Noroeste 36 Norte 0 -- -- 68
2019-04-03 18:00:00 5.3 28 Norte 64 Noroeste 0.2 -- -- 67
2019-04-03 17:00:00 8.8 32 Noroeste 51 Noroeste 0 -- -- 37
2019-04-03 16:00:00 8.8 26 Noroeste 44 Oeste 0 -- -- 41
2019-04-03 15:00:00 8.8 21 Oeste 41 Noroeste 0 -- -- 41
2019-04-03 14:00:00 9.4 24 Oeste 38 Oeste 0 -- -- 42
2019-04-03 13:00:00 7.4 19 Oeste 30 Oeste 0 -- -- 54
2019-04-03 12:00:00 5.2 12 Oeste 20 Noroeste 0 -- -- 81
2019-04-03 11:00:00 4.1 10 Oeste 18 Oeste 0 -- -- 91
2019-04-03 10:00:00 3.7 5 Oeste 12 Oeste 0 -- -- 93
2019-04-03 09:00:00 3.1 3 Sudoeste 6 Oeste 0 -- -- 94
2019-04-03 08:00:00 2.7 4 Noroeste 9 Noroeste 0 -- -- 94
2019-04-03 07:00:00 2.2 6 Noroeste 13 Noroeste 0 -- -- 94
2019-04-03 06:00:00 2.9 8 Oeste 19 Oeste 0 -- -- 92
2019-04-03 05:00:00 3.3 9 Sudoeste 22 Oeste 0 -- -- 92
2019-04-03 04:00:00 3.8 6 Sudoeste 18 Sudoeste 0 -- -- 90
2019-04-03 03:00:00 4.7 13 Sudoeste 22 Sudoeste 0 -- -- 88
2019-04-03 02:00:00 6.3 8 Sudoeste 14 Sudeste 0 -- -- 75
2019-04-03 01:00:00 7 10 Sudeste 17 Sudeste 0 -- -- 81
2019-04-03 00:00:00 7.4 13 Este 18 Este 0 -- -- 79
2019-04-02 23:00:00 7.4 10 Este 18 Norte 0 -- -- 77
2019-04-02 22:00:00 9.5 4 Sur 5 Sur 0 -- -- 64
2019-04-02 21:00:00 11.2 4 Noroeste 18 Noroeste 0 -- -- 56
2019-04-02 20:00:00 12.8 12 Noroeste 23 Noroeste 0 -- -- 53
2019-04-02 19:00:00 13.6 6 Sudeste 13 Oeste 1.2 -- -- 56
2019-04-02 18:00:00 13.4 13 Sudoeste 29 Sudoeste 0 -- -- 50
2019-04-02 17:00:00 14.8 14 Oeste 33 Norte 0 -- -- 45
2019-04-02 16:00:00 12.9 15 Norte 34 Noroeste 0 -- -- 61
2019-04-02 15:00:00 13.5 13 Oeste 25 Oeste 0 -- -- 52
2019-04-02 14:00:00 14.4 13 Noroeste 30 Noroeste 0 -- -- 52
2019-04-02 13:00:00 12.7 7 Oeste 23 Oeste 0 -- -- 59
2019-04-02 12:00:00 11.8 13 Sudoeste 21 Sudoeste 0 -- -- 62
2019-04-02 11:00:00 9.8 8 Sudoeste 15 Sudoeste 0 -- -- 70
2019-04-02 10:00:00 7.3 5 Noroeste 9 Noroeste 0 -- -- 87
2019-04-02 09:00:00 3.7 3 Norte 6 Noroeste 0 -- -- 95
2019-04-02 08:00:00 2.7 0 Calma 6 Este 0 -- -- 94
2019-04-02 07:00:00 3.2 3 Este 7 Nordeste 0 -- -- 94
2019-04-02 06:00:00 3.6 4 Norte 5 Norte 0 -- -- 93
2019-04-02 05:00:00 4.2 3 Este 6 Este 0 -- -- 93
2019-04-02 04:00:00 4.7 2 Sudeste 7 Nordeste 0 -- -- 91
2019-04-02 03:00:00 5.6 6 Este 11 Este 0 -- -- 90
2019-04-02 02:00:00 6.3 6 Este 13 Este 0 -- -- 89
2019-04-02 01:00:00 6.6 6 Este 15 Nordeste 0 -- -- 88
2019-04-02 00:00:00 7.7 10 Nordeste 17 Este 0 -- -- 86
2019-04-01 23:00:00 7.9 8 Este 18 Este 0 -- -- 80
2019-04-01 22:00:00 9.7 9 Este 12 Sudeste 0 -- -- 70
2019-04-01 21:00:00 11.5 6 Norte 16 Noroeste 0 -- -- 51
2019-04-01 20:00:00 14.7 7 Oeste 17 Oeste 0 -- -- 38
2019-04-01 19:00:00 14.3 3 Noroeste 9 Noroeste 0 -- -- 41
2019-04-01 18:00:00 14.3 5 Noroeste 18 Noroeste 0 -- -- 45
2019-04-01 17:00:00 15 9 Noroeste 16 Noroeste 0 -- -- 46
2019-04-01 16:00:00 13.4 5 Oeste 17 Sudeste 0 -- -- 54
2019-04-01 15:00:00 13.6 5 Sudoeste 17 Sur 0 -- -- 56
2019-04-01 14:00:00 11.5 6 Sur 25 Sur 0 -- -- 61
2019-04-01 13:00:00 11.2 4 Sur 13 Sur 0 -- -- 64
2019-04-01 12:00:00 9.4 6 Sudeste 15 Sudeste 0.2 -- -- 74
2019-04-01 11:00:00 8.7 9 Sudeste 19 Sudeste 0 -- -- 78
2019-04-01 10:00:00 6.6 10 Este 16 Este 0 -- -- 88
2019-04-01 09:00:00 5.8 4 Este 17 Sudeste 0 -- -- 89
2019-04-01 08:00:00 5.7 11 Este 20 Este 0 -- -- 89
2019-04-01 07:00:00 5.5 10 Este 18 Este 0 -- -- 88
2019-04-01 06:00:00 5.4 8 Este 19 Este 0 -- -- 87
2019-04-01 05:00:00 5.1 7 Este 14 Este 0 -- -- 88
2019-04-01 04:00:00 5.1 8 Este 19 Este 0 -- -- 86
2019-04-01 03:00:00 5 13 Este 21 Este 0 -- -- 85
2019-04-01 02:00:00 5.2 5 Este 24 Este 0 -- -- 85
2019-04-01 01:00:00 5.2 13 Este 31 Sudeste 0 -- -- 85
2019-04-01 00:00:00 5.5 14 Este 29 Este 0 -- -- 86
2019-03-31 23:00:00 6.1 14 Sudeste 26 Este 0 -- -- 90
2019-03-31 22:00:00 6.3 14 Sudeste 28 Sudeste 0.2 -- -- 89
2019-03-31 21:00:00 6.6 17 Sudeste 32 Sudeste 0.2 -- -- 87
2019-03-31 20:00:00 7.5 19 Sudeste 40 Sudeste 0 -- -- 79
2019-03-31 19:00:00 8.8 24 Sudeste 42 Sudeste 0 -- -- 73
2019-03-31 18:00:00 10.5 26 Sudeste 43 Sudeste 0 -- -- 58
2019-03-31 17:00:00 12.7 24 Sudeste 39 Sudeste 0 -- -- 46
2019-03-31 16:00:00 14.4 23 Sudeste 41 Sudeste 0 -- -- 35
2019-03-31 15:00:00 15.5 20 Sudeste 34 Este 0 -- -- 33
2019-03-31 14:00:00 14.8 19 Sudeste 34 Sudeste 0 -- -- 35
2019-03-31 13:00:00 13.4 22 Sudeste 35 Este 0 -- -- 36
2019-03-31 12:00:00 11.6 18 Este 36 Sudeste 0 -- -- 46
2019-03-31 11:00:00 10.5 17 Sudeste 33 Sudeste 0 -- -- 51
2019-03-31 10:00:00 7 13 Este 23 Sudeste 0 -- -- 57
2019-03-31 09:00:00 4.9 7 Este 14 Este 0 -- -- 61
2019-03-31 08:00:00 5 7 Este 14 Este 0 -- -- 59
2019-03-31 07:00:00 5.8 8 Este 18 Este 0 -- -- 55
2019-03-31 06:00:00 5.9 5 Este 15 Este 0 -- -- 54
2019-03-31 05:00:00 6.5 10 Este 28 Este 0 -- -- 51
2019-03-31 03:00:00 8.1 14 Sudeste 26 Sudeste 0 -- -- 44
2019-03-31 01:00:00 8.1 14 Este 26 Este 0 -- -- 43
2019-03-31 00:00:00 7.7 14 Este 23 Sudeste 0 -- -- 42
2019-03-30 23:00:00 8.9 16 Este 26 Sudeste 0 -- -- 39
2019-03-30 22:00:00 10 16 Este 29 Este 0 -- -- 37
2019-03-30 21:00:00 10.6 13 Este 18 Este 0 -- -- 34
2019-03-30 20:00:00 11.6 9 Este 14 Este 0 -- -- 35
2019-03-30 19:00:00 14.9 9 Este 19 Este 0 -- -- 29
2019-03-30 18:00:00 16.2 11 Sudeste 22 Sudeste 0 -- -- 24
2019-03-30 17:00:00 16.5 12 Sudeste 26 Sudeste 0 -- -- 24
2019-03-30 16:00:00 16.7 13 Sudeste 33 Sudeste 0 -- -- 27
2019-03-30 15:00:00 16.2 15 Sudeste 32 Este 0 -- -- 29
2019-03-30 14:00:00 15.5 8 Sudeste 27 Este 0 -- -- 30
2019-03-30 13:00:00 14.6 12 Sudeste 31 Sudeste 0 -- -- 35
2019-03-30 12:00:00 13.5 15 Este 34 Sudeste 0 -- -- 38
2019-03-30 11:00:00 12 13 Este 24 Este 0 -- -- 43
2019-03-30 10:00:00 9.8 13 Este 22 Sudeste 0 -- -- 47
2019-03-30 09:00:00 7.5 12 Este 20 Este 0 -- -- 53
2019-03-30 08:00:00 4.7 8 Este 15 Este 0 -- -- 60
2019-03-30 07:00:00 3.5 12 Este 22 Este 0 -- -- 65
2019-03-30 06:00:00 3.7 13 Este 20 Este 0 -- -- 65
2019-03-30 05:00:00 4.3 13 Este 20 Este 0 -- -- 64
2019-03-30 04:00:00 5 10 Este 16 Este 0 -- -- 63
2019-03-30 03:00:00 5.4 10 Este 20 Este 0 -- -- 62
2019-03-30 02:00:00 6.7 14 Este 25 Este 0 -- -- 58
2019-03-30 01:00:00 7.5 18 Sudeste 28 Este 0 -- -- 55
2019-03-30 00:00:00 8 18 Este 30 Este 0 -- -- 51
2019-03-29 23:00:00 8.7 19 Este 32 Este 0 -- -- 46
2019-03-29 22:00:00 8.5 9 Sudeste 13 Este 0 -- -- 36
2019-03-29 21:00:00 9.1 9 Sudeste 16 Sudeste 0 -- -- 35
2019-03-29 20:00:00 11.8 13 Sudeste 22 Sudeste 0 -- -- 30
2019-03-29 19:00:00 14.5 18 Sudeste 31 Sudeste 0 -- -- 27
2019-03-29 18:00:00 16 15 Sudeste 28 Sudeste 0 -- -- 24
2019-03-29 17:00:00 16.6 14 Sudeste 30 Sudeste 0 -- -- 25
2019-03-29 16:00:00 16.6 15 Sudeste 36 Sudeste 0 -- -- 25
2019-03-29 15:00:00 16.4 20 Este 36 Este 0 -- -- 26
2019-03-29 14:00:00 16.4 12 Sudeste 32 Sudeste 0 -- -- 27
2019-03-29 13:00:00 16 15 Sudeste 32 Sudeste 0 -- -- 28
2019-03-29 12:00:00 14.7 8 Sudeste 26 Nordeste 0 -- -- 31
2019-03-29 11:00:00 12.7 12 Sudeste 22 Sudeste 0 -- -- 36
2019-03-29 10:00:00 10.1 15 Este 25 Este 0 -- -- 41
2019-03-29 09:00:00 8.1 15 Este 26 Este 0 -- -- 46
2019-03-29 08:00:00 5.8 14 Este 23 Este 0 -- -- 51
2019-03-29 07:00:00 4.2 17 Este 25 Este 0 -- -- 56
2019-03-29 06:00:00 4.5 17 Este 26 Este 0 -- -- 56
2019-03-29 05:00:00 5.2 13 Este 24 Este 0 -- -- 55
2019-03-29 04:00:00 6.1 14 Este 26 Este 0 -- -- 55
2019-03-29 03:00:00 6.8 15 Este 24 Este 0 -- -- 58
2019-03-29 02:00:00 5.9 10 Este 22 Este 0 -- -- 64
2019-03-29 01:00:00 6.5 13 Este 20 Sudeste 0 -- -- 60
2019-03-29 00:00:00 6.4 6 Este 13 Este 0 -- -- 58
2019-03-28 23:00:00 7.6 9 Este 15 Este 0 -- -- 52
2019-03-28 22:00:00 9.6 9 Este 21 Este 0 -- -- 45
2019-03-28 21:00:00 11.3 15 Este 23 Este 0 -- -- 39
2019-03-28 20:00:00 13.1 10 Sudeste 14 Sudeste 0 -- -- 31
2019-03-28 19:00:00 16.4 11 Sudeste 23 Sudeste 0 -- -- 25
2019-03-28 18:00:00 17.7 10 Sudeste 18 Sudeste 0 -- -- 23
2019-03-28 17:00:00 18 10 Sudeste 28 Sur 0 -- -- 22
2019-03-28 16:00:00 17.9 10 Sudeste 24 Sur 0 -- -- 23
2019-03-28 15:00:00 17.1 4 Nordeste 22 Sudeste 0 -- -- 24
2019-03-28 14:00:00 16.3 9 Este 21 Este 0 -- -- 23
2019-03-28 13:00:00 15 7 Sur 22 Sudeste 0 -- -- 31
2019-03-28 12:00:00 13.3 10 Este 25 Este 0 -- -- 33
2019-03-28 11:00:00 11.7 11 Sudeste 25 Sudeste 0 -- -- 35
2019-03-28 10:00:00 8.8 9 Sudeste 17 Sudeste 0 -- -- 41
2019-03-28 09:00:00 5.8 12 Sudeste 18 Este 0 -- -- 49
2019-03-28 08:00:00 2.7 10 Este 16 Sudeste 0 -- -- 52
2019-03-28 07:00:00 -0.8 2 Nordeste 14 Este 0 -- -- 60
2019-03-28 06:00:00 -1.3 4 Nordeste 12 Este 0 -- -- 62
2019-03-28 05:00:00 -0.1 2 Norte 10 Este 0 -- -- 58
2019-03-28 04:00:00 -0.3 6 Este 11 Sudeste 0 -- -- 58
2019-03-28 03:00:00 2.4 5 Sudeste 8 Sudeste 0 -- -- 49
2019-03-28 02:00:00 2.8 5 Sudeste 7 Sudeste 0 -- -- 48
2019-03-28 01:00:00 3.9 4 Sur 8 Este 0 -- -- 48
2019-03-28 00:00:00 4.4 3 Norte 8 Nordeste 0 -- -- 47
2019-03-27 23:00:00 5.6 3 Este 15 Nordeste 0 -- -- 45
2019-03-27 22:00:00 7.1 12 Nordeste 26 Nordeste 0 -- -- 43
2019-03-27 21:00:00 8.3 14 Norte 24 Norte 0 -- -- 39
2019-03-27 20:00:00 10.4 10 Nordeste 32 Nordeste 0 -- -- 31
2019-03-27 19:00:00 13.6 22 Nordeste 39 Nordeste 0 -- -- 23
2019-03-27 18:00:00 16.7 21 Nordeste 32 Norte 0 -- -- 18
2019-03-27 17:00:00 18.6 14 Norte 30 Nordeste 0 -- -- 16
2019-03-27 16:00:00 19 9 Norte 18 Nordeste 0 -- -- 15
2019-03-27 15:00:00 18.4 9 Sur 22 Sur 0 -- -- 17
2019-03-27 14:00:00 17.2 9 Sur 18 Oeste 0 -- -- 18
2019-03-27 13:00:00 16 4 Sur 18 Sudeste 0 -- -- 21
2019-03-27 12:00:00 14.4 7 Este 20 Nordeste 0 -- -- 21
2019-03-27 11:00:00 12.4 4 Sur 15 Sudeste 0 -- -- 25
2019-03-27 10:00:00 10.2 7 Sudeste 13 Sudeste 0 -- -- 27
2019-03-27 09:00:00 6.5 4 Este 9 Este 0 -- -- 37
2019-03-27 08:00:00 2 7 Este 20 Este 0 -- -- 44
2019-03-27 07:00:00 0.5 9 Este 14 Sudeste 0 -- -- 49
2019-03-27 06:00:00 0.8 10 Este 18 Este 0 -- -- 47
2019-03-27 05:00:00 1.9 12 Sudeste 18 Sudeste 0 -- -- 42
2019-03-27 04:00:00 1.1 -- -- -- -- 0 -- -- 43
2019-03-27 03:00:00 1.8 9 Este 18 Sudeste 0 -- -- 40
2019-03-27 02:00:00 2.3 11 Sudeste 16 Este 0 -- -- 38
2019-03-27 01:00:00 2.3 4 Este 14 Este 0 -- -- 38
2019-03-27 00:00:00 4 7 Este 15 Nordeste 0 -- -- 33
2019-03-26 23:00:00 5.6 10 Nordeste 29 Nordeste 0 -- -- 30
2019-03-26 22:00:00 7.5 14 Nordeste 23 Nordeste 0 -- -- 27
2019-03-26 21:00:00 8.7 16 Nordeste 24 Nordeste 0 -- -- 26
2019-03-26 20:00:00 10.1 16 Nordeste 25 Nordeste 0 -- -- 25
2019-03-26 19:00:00 13.8 17 Nordeste 32 Nordeste 0 -- -- 20
2019-03-26 18:00:00 15.9 20 Nordeste 31 Nordeste 0 -- -- 18
2019-03-26 17:00:00 17.5 15 Nordeste 30 Este 0 -- -- 15
2019-03-26 16:00:00 17.6 15 Este 33 Este 0 -- -- 15
2019-03-26 15:00:00 17.6 18 Este 36 Sudeste 0 -- -- 15
2019-03-26 14:00:00 17 18 Sudeste 36 Sudeste 0 -- -- 17
2019-03-26 13:00:00 16.1 19 Este 33 Este 0 -- -- 20
2019-03-26 12:00:00 12.7 13 Este 26 Sudeste 0 -- -- 31
2019-03-26 11:00:00 9.5 12 Sudeste 21 Sudeste 0 -- -- 41
2019-03-26 10:00:00 7.5 8 Sudeste 15 Sudeste 0 -- -- 50
2019-03-26 09:00:00 4.4 6 Sudeste 11 Sudeste 0 -- -- 65
2019-03-26 08:00:00 -0.7 3 Este 6 Este 0 -- -- 80
2019-03-26 07:00:00 -2.2 0 Calma 6 Sudeste 0 -- -- 82
2019-03-26 06:00:00 -1.2 0 Calma 5 Este 0 -- -- 78
2019-03-26 05:00:00 -0.3 2 Sudeste 9 Este 0 -- -- 73
2019-03-26 04:00:00 0.2 8 Este 9 Este 0 -- -- 72
2019-03-26 03:00:00 1.8 3 Nordeste 13 Nordeste 0 -- -- 65
2019-03-26 02:00:00 2.2 10 Nordeste 15 Nordeste 0 -- -- 65
2019-03-26 01:00:00 2.6 8 Norte 18 Nordeste 0 -- -- 64
2019-03-26 00:00:00 2.8 9 Nordeste 15 Norte 0 -- -- 63
2019-03-25 23:00:00 4 5 Norte 16 Norte 0 -- -- 60
2019-03-25 22:00:00 5 4 Nordeste 29 Nordeste 0 -- -- 56
2019-03-25 21:00:00 6.2 16 Norte 32 Nordeste 0 -- -- 54
2019-03-25 20:00:00 8 21 Nordeste 31 Norte 0 -- -- 47
2019-03-25 19:00:00 11.1 17 Norte 35 Norte 0 -- -- 38
2019-03-25 18:00:00 14.1 21 Norte 41 Norte 0 -- -- 33
2019-03-25 17:00:00 15.7 26 Norte 36 Norte 0 -- -- 23
2019-03-25 16:00:00 17 13 Nordeste 26 Norte 0 -- -- 26
2019-03-25 15:00:00 17 13 Norte 22 Norte 0 -- -- 29
2019-03-25 14:00:00 16.3 5 Noroeste 19 Norte 0 -- -- 28
2019-03-25 13:00:00 15.1 6 Nordeste 21 Norte 0 -- -- 35
2019-03-25 12:00:00 14.2 11 Nordeste 22 Norte 0 -- -- 37
2019-03-25 11:00:00 12.5 6 Norte 16 Norte 0 -- -- 43
2019-03-25 10:00:00 10.4 6 Nordeste 16 Nordeste 0 -- -- 49
2019-03-25 09:00:00 8.5 5 Este 9 Nordeste 0 -- -- 53
2019-03-25 08:00:00 2.7 4 Nordeste 8 Nordeste 0 -- -- 71
2019-03-25 07:00:00 1.3 5 Norte 9 Este 0 -- -- 74
2019-03-25 06:00:00 2.2 6 Nordeste 9 Nordeste 0 -- -- 71
2019-03-25 05:00:00 2.6 4 Norte 8 Nordeste 0 -- -- 71
2019-03-25 04:00:00 4.2 3 Nordeste 6 Nordeste 0 -- -- 65
2019-03-25 03:00:00 4.2 4 Norte 7 Norte 0 -- -- 64
2019-03-25 02:00:00 6.7 3 Sudeste 5 Sudeste 0 -- -- 56
2019-03-25 01:00:00 7.1 0 Calma 9 Sudeste 0 -- -- 55
2019-03-25 00:00:00 8.5 6 Este 12 Este 0 -- -- 50
2019-03-24 23:00:00 9.9 9 Este 17 Este 0 -- -- 47
2019-03-24 22:00:00 11.4 10 Este 22 Nordeste 0 -- -- 45
2019-03-24 21:00:00 12.5 10 Nordeste 20 Nordeste 0 -- -- 41
2019-03-24 20:00:00 15.2 12 Nordeste 22 Este 0 -- -- 34
2019-03-24 19:00:00 17.7 9 Nordeste 18 Sur 0 -- -- 30
2019-03-24 18:00:00 18.8 8 Sur 24 Sudeste 0 -- -- 20
2019-03-24 17:00:00 19.6 9 Sur 22 Sudeste 0 -- -- 19
2019-03-24 16:00:00 19.7 9 Sur 29 Sur 0 -- -- 20
2019-03-24 15:00:00 19.2 9 Este 33 Sudeste 0 -- -- 20
2019-03-24 14:00:00 18.7 12 Sudeste 32 Sudeste 0 -- -- 19
2019-03-24 13:00:00 18 18 Sudeste 30 Sudeste 0 -- -- 21
2019-03-24 12:00:00 16.5 13 Sudeste 24 Sudeste 0 -- -- 31
2019-03-24 11:00:00 14.3 10 Sudeste 17 Sudeste 0 -- -- 37
2019-03-24 10:00:00 12.1 7 Sur 12 Sudoeste 0 -- -- 48
2019-03-24 09:00:00 9 6 Este 13 Este 0 -- -- 54
2019-03-24 08:00:00 5.2 3 Sudeste 6 Sudeste 0 -- -- 64
2019-03-24 07:00:00 4 2 Norte 8 Este 0 -- -- 63
2019-03-24 06:00:00 4.6 0 Calma 5 Noroeste 0 -- -- 61
2019-03-24 05:00:00 4.9 2 Norte 16 Este 0 -- -- 60
2019-03-24 04:00:00 5.9 7 Este 13 Este 0 -- -- 56
2019-03-24 03:00:00 6.6 12 Este 14 Este 0 -- -- 55
2019-03-24 02:00:00 6.2 4 Nordeste 13 Sudoeste 0 -- -- 55
2019-03-24 01:00:00 8.1 10 Este 17 Este 0 -- -- 49
2019-03-24 00:00:00 8.7 2 Este 16 Este 0 -- -- 46
2019-03-23 23:00:00 10.5 12 Este 19 Este 0 -- -- 41
2019-03-23 22:00:00 10.7 9 Este 16 Este 0 -- -- 39
2019-03-23 21:00:00 11.3 11 Este 16 Este 0 -- -- 38
2019-03-23 20:00:00 13.6 9 Este 22 Sudeste 0 -- -- 33
2019-03-23 19:00:00 16.4 14 Sudeste 28 Sudeste 0 -- -- 28
2019-03-23 18:00:00 17.9 17 Sudeste 26 Sudeste 0 -- -- 26
2019-03-23 17:00:00 18.2 16 Este 28 Este 0 -- -- 27
2019-03-23 16:00:00 18.7 13 Este 28 Este 0 -- -- 26
2019-03-23 15:00:00 18.4 18 Este 49 Este 0 -- -- 30
2019-03-23 14:00:00 17.9 17 Sudeste 30 Sudeste 0 -- -- 25
2019-03-23 13:00:00 17.1 8 Sudeste 26 Sudeste 0 -- -- 32
2019-03-23 12:00:00 16 14 Sudeste 23 Sudeste 0 -- -- 37
2019-03-23 11:00:00 14 7 Sur 14 Sudeste 0 -- -- 46
2019-03-23 10:00:00 11.4 4 Sur 9 Sudoeste 0 -- -- 52
2019-03-23 09:00:00 7.8 3 Este 8 Sudeste 0 -- -- 60
2019-03-23 08:00:00 3.9 3 Sudeste 8 Este 0 -- -- 71
2019-03-23 07:00:00 2.9 3 Nordeste 5 Este 0 -- -- 71
2019-03-23 06:00:00 4.1 5 Sudeste 11 Este 0 -- -- 67
2019-03-23 05:00:00 5.4 11 Este 14 Este 0 -- -- 63
2019-03-23 04:00:00 5.9 9 Este 17 Este 0 -- -- 60
2019-03-23 03:00:00 6.2 12 Este 16 Este 0 -- -- 59
2019-03-23 02:00:00 6.4 6 Este 21 Sudeste 0 -- -- 56
2019-03-23 01:00:00 7.4 11 Este 20 Este 0 -- -- 53
2019-03-23 00:00:00 7.9 14 Este 20 Este 0 -- -- 51
2019-03-22 23:00:00 7.4 7 Este 14 Este 0 -- -- 50
2019-03-22 22:00:00 8.4 8 Este 14 Sudeste 0 -- -- 47
2019-03-22 21:00:00 9.9 10 Sudeste 17 Sudeste 0 -- -- 42
2019-03-22 20:00:00 11.3 10 Sudeste 15 Sudeste 0 -- -- 39
2019-03-22 19:00:00 14.5 9 Sudeste 24 Sudeste 0 -- -- 32
2019-03-22 18:00:00 16.1 12 Sudeste 29 Sudeste 0 -- -- 28
2019-03-22 17:00:00 16.5 14 Sudeste 35 Sudeste 0 -- -- 25
2019-03-22 16:00:00 16.7 13 Sudeste 30 Sur 0 -- -- 23
2019-03-22 15:00:00 16.3 11 Sudeste 27 Sudeste 0 -- -- 25
2019-03-22 14:00:00 14.9 12 Sudeste 26 Sudeste 0 -- -- 26
2019-03-22 13:00:00 14.4 6 Este 24 Sudeste 0 -- -- 28
2019-03-22 12:00:00 12.7 7 Sudeste 21 Sudeste 0 -- -- 34
2019-03-22 11:00:00 11.4 13 Sudeste 20 Sudeste 0 -- -- 39
2019-03-22 10:00:00 9 8 Sudeste 19 Este 0 -- -- 45
2019-03-22 09:00:00 5 6 Sudeste 14 Sudeste 0 -- -- 52
2019-03-22 08:00:00 2.1 4 Este 13 Este 0 -- -- 59
2019-03-22 07:00:00 1.6 8 Este 14 Este 0 -- -- 59
2019-03-22 06:00:00 2 7 Este 15 Este 0 -- -- 56
2019-03-22 05:00:00 2.9 10 Este 17 Este 0 -- -- 52
2019-03-22 04:00:00 2.9 11 Este 15 Este 0 -- -- 52
2019-03-22 03:00:00 3 5 Nordeste 26 Este 0 -- -- 50
2019-03-22 02:00:00 3.5 13 Este 21 Este 0 -- -- 52
2019-03-22 01:00:00 3.5 9 Este 17 Sudeste 0 -- -- 54
2019-03-22 00:00:00 4.2 8 Este 21 Sudeste 0 -- -- 54
2019-03-21 23:00:00 5.5 10 Sudeste 27 Este 0 -- -- 50
2019-03-21 22:00:00 6.9 15 Este 27 Este 0 -- -- 45
2019-03-21 21:00:00 7.1 12 Este 20 Este 0 -- -- 36
2019-03-21 20:00:00 8.8 9 Este 14 Sudeste 0 -- -- 36
2019-03-21 19:00:00 12.2 8 Sudeste 20 Sudeste 0 -- -- 28
2019-03-21 18:00:00 13.5 6 Sudeste 23 Sur 0 -- -- 26
2019-03-21 17:00:00 13.9 6 Sur 26 Sur 0 -- -- 27
2019-03-21 16:00:00 13.2 6 Sur 23 Sudeste 0 -- -- 27
2019-03-21 15:00:00 13 8 Sudoeste 23 Sudeste 0 -- -- 28
2019-03-21 14:00:00 11.8 9 Norte 31 Sur 0 -- -- 33
2019-03-21 13:00:00 11.3 7 Sur 22 Sudeste 0 -- -- 35
2019-03-21 12:00:00 9.8 8 Sudeste 21 Sudeste 0 -- -- 36
2019-03-21 11:00:00 8.2 9 Sudeste 17 Sudeste 0 -- -- 43
2019-03-21 10:00:00 5.8 7 Sudeste 12 Sudeste 0 -- -- 52
2019-03-21 09:00:00 3.2 6 Sudeste 13 Este 0 -- -- 62
2019-03-21 08:00:00 -1.3 8 Este 12 Nordeste 0 -- -- 78
2019-03-21 07:00:00 -3.6 4 Norte 9 Este 0 -- -- 79
2019-03-21 06:00:00 -3.3 2 Nordeste 7 Norte 0 -- -- 80
2019-03-21 05:00:00 -2.1 4 Nordeste 16 Este 0 -- -- 75
2019-03-21 04:00:00 -0.6 11 Este 16 Sudeste 0 -- -- 73
2019-03-21 03:00:00 -0.4 11 Este 16 Este 0 -- -- 73
2019-03-21 02:00:00 -0.1 9 Este 14 Sudeste 0 -- -- 71
2019-03-21 01:00:00 0.7 8 Sudeste 13 Este 0 -- -- 68
2019-03-21 00:00:00 1.3 10 Este 12 Este 0 -- -- 66
2019-03-20 23:00:00 2.6 3 Este 15 Este 0 -- -- 61
2019-03-20 22:00:00 3.4 5 Sudeste 20 Nordeste 0 -- -- 58
2019-03-20 21:00:00 4.8 13 Nordeste 26 Nordeste 0 -- -- 55
2019-03-20 20:00:00 6.4 14 Nordeste 34 Nordeste 0 -- -- 51
2019-03-20 19:00:00 8.8 21 Norte 39 Norte 0 -- -- 45
2019-03-20 18:00:00 11.6 22 Norte 32 Norte 0 -- -- 36
2019-03-20 17:00:00 13.4 6 Oeste 17 Norte 0 -- -- 31
2019-03-20 16:00:00 12.7 8 Nordeste 24 Nordeste 0 -- -- 33
2019-03-20 15:00:00 12.1 13 Norte 26 Norte 0 -- -- 34
2019-03-20 14:00:00 11.4 14 Nordeste 30 Norte 0 -- -- 35
2019-03-20 13:00:00 10.2 14 Norte 28 Norte 0 -- -- 34
2019-03-20 12:00:00 9.6 13 Nordeste 30 Nordeste 0 -- -- 39
2019-03-20 11:00:00 8.1 15 Nordeste 27 Norte 0 -- -- 48
2019-03-20 10:00:00 6.3 14 Norte 23 Nordeste 0 -- -- 54
2019-03-20 09:00:00 4.1 5 Norte 9 Norte 0 -- -- 65
2019-03-20 08:00:00 1.1 4 Sudoeste 12 Noroeste 0 -- -- 77
2019-03-20 07:00:00 0.6 3 Norte 9 Noroeste 0 -- -- 76
2019-03-20 06:00:00 0.5 0 Calma 10 Oeste 0 -- -- 77
2019-03-20 05:00:00 0.2 2 Sudoeste 9 Este 0 -- -- 81
2019-03-20 04:00:00 0.8 3 Sudoeste 10 Norte 0 -- -- 81
2019-03-20 03:00:00 1.7 11 Norte 22 Norte 0 -- -- 78
2019-03-20 02:00:00 2.5 10 Nordeste 30 Norte 0 -- -- 75
2019-03-20 01:00:00 2.9 13 Norte 32 Norte 0 -- -- 73
2019-03-20 00:00:00 3.2 22 Norte 41 Norte 0 -- -- 71
2019-03-19 23:00:00 3.4 28 Norte 41 Norte 0 -- -- 72
2019-03-19 22:00:00 3.6 12 Norte 21 Norte 0 -- -- 72
2019-03-19 21:00:00 4.4 12 Nordeste 20 Nordeste 0 -- -- 70
2019-03-19 20:00:00 5.1 13 Norte 31 Norte 0 -- -- 66
2019-03-19 19:00:00 6.8 15 Norte 34 Norte 0 -- -- 57
2019-03-19 18:00:00 8.5 18 Norte 37 Norte 0 -- -- 51
2019-03-19 17:00:00 9.8 27 Norte 39 Norte 0 -- -- 47
2019-03-19 16:00:00 9.3 22 Norte 44 Noroeste 0 -- -- 49
2019-03-19 15:00:00 9.5 18 Norte 37 Noroeste 0 -- -- 55
2019-03-19 14:00:00 9 25 Norte 42 Noroeste 0 -- -- 59
2019-03-19 13:00:00 8.9 22 Norte 37 Noroeste 0 -- -- 59
2019-03-19 12:00:00 7.6 23 Norte 36 Norte 0 -- -- 63
2019-03-19 11:00:00 6.5 18 Noroeste 31 Noroeste 0 -- -- 69
2019-03-19 10:00:00 5.3 18 Noroeste 29 Noroeste 0 -- -- 73
2019-03-19 09:00:00 3.9 15 Noroeste 22 Noroeste 0 -- -- 79
2019-03-19 08:00:00 2.6 11 Oeste 20 Oeste 0 -- -- 82
2019-03-19 07:00:00 2.6 12 Noroeste 21 Oeste 0 -- -- 80
2019-03-19 06:00:00 3 11 Oeste 21 Noroeste 0 -- -- 76
2019-03-19 05:00:00 3.4 14 Noroeste 24 Noroeste 0 -- -- 72
2019-03-19 04:00:00 3.9 15 Noroeste 36 Norte 0 -- -- 67
2019-03-19 03:00:00 4.3 10 Norte 24 Norte 0 -- -- 63
2019-03-19 02:00:00 4.2 20 Norte 27 Norte 0 -- -- 63
2019-03-19 01:00:00 4 6 Norte 14 Noroeste 0 -- -- 62
2019-03-19 00:00:00 3.9 8 Norte 18 Norte 0 -- -- 61